Time;durP1;ratioP1;P1;durP2;ratioP2;P2;SDS_P1;SDS_P2;PMS_P1;PMS_P2;Temp;Humidity;BMP_temperature;BMP_pressure;BME280_temperature;BME280_humidity;BME280_pressure;Samples;Min_cycle;Max_cycle;Signal;HPM_P1;HPM_P2
2022/10/07 00:10:07;;;;;;;;;;;;;;;15.19;68.84;100918.72;4099199;32;20014;-94
2022/10/07 00:13:51;;;;;;;;;;;;;;;15.26;68.43;100915.16;4156081;34;36719;-94
2022/10/07 00:17:17;;;;;;;;;;;;;;;15.17;68.62;100910.88;4151171;34;34409;-92
2022/10/07 00:21:10;;;;;;;;;;;;;;;15.20;68.45;100904.75;4164441;34;36183;-91
2022/10/07 00:24:21;;;;;;;;;;;;;;;14.92;69.22;100905.09;4151636;34;34520;-93
2022/10/07 00:27:37;;;;;;;;;;;;;;;15.17;68.26;100904.78;4158795;34;36818;-91
2022/10/07 00:30:49;;;;;;;;;;;;;;;15.04;68.61;100902.34;4158729;34;33402;-92
2022/10/07 00:34:05;;;;;;;;;;;;;;;15.04;68.49;100897.13;4146574;34;32595;-91
2022/10/07 00:37:27;;;;;;;;;;;;;;;14.93;68.68;100894.63;4142262;34;36368;-93
2022/10/07 00:40:41;;;;;;;;;;;;;;;15.03;68.52;100898.00;4144906;34;34919;-93
2022/10/07 00:44:07;;;;;;;;;;;;;;;15.07;68.31;100898.81;4149646;34;35905;-94
2022/10/07 00:47:29;;;;;;;;;;;;;;;14.78;69.32;100899.16;4133086;34;35072;-92
2022/10/07 00:50:36;;;;;;;;;;;;;;;14.88;68.63;100888.59;4144229;34;33406;-92
2022/10/07 00:53:46;;;;;;;;;;;;;;;15.01;68.40;100893.69;4149541;34;33777;-90
2022/10/07 00:56:43;;;;;;;;;;;;;;;14.85;68.90;100895.59;4146878;34;33300;-93
2022/10/07 00:59:48;;;;;;;;;;;;;;;14.79;69.04;100891.31;4147201;34;34377;-91
2022/10/07 01:02:43;;;;;;;;;;;;;;;14.67;69.11;100896.69;4149500;34;35233;-93
2022/10/07 01:12:36;;;;;;;;;;;;;;;15.30;67.50;100882.84;4469978;32;35552;-93
2022/10/07 01:15:24;;;;;;;;;;;;;;;14.65;69.19;100880.16;4480286;32;34548;-93
2022/10/07 01:18:31;;;;;;;;;;;;;;;14.75;68.71;100880.91;4485336;32;35299;-91
2022/10/07 01:22:00;;;;;;;;;;;;;;;14.72;68.92;100881.81;4473105;32;36056;-92
2022/10/07 01:25:20;;;;;;;;;;;;;;;14.71;68.78;100883.56;4456412;32;36036;-92
2022/10/07 01:28:26;;;;;;;;;;;;;;;14.64;68.69;100878.41;4472116;31;36590;-93
2022/10/07 02:01:45;;;;;;;;;;;;;;;14.54;69.37;100876.78;4341767;33;20019;-92
2022/10/07 02:04:45;;;;;;;;;;;;;;;14.37;69.96;100875.19;4331030;33;36245;-90
2022/10/07 02:07:37;;;;;;;;;;;;;;;14.39;69.41;100876.03;4332328;33;33980;-90
2022/10/07 02:10:36;;;;;;;;;;;;;;;14.22;69.80;100875.34;4327636;33;32775;-92
2022/10/07 02:13:37;;;;;;;;;;;;;;;14.55;69.12;100873.31;4336750;33;33334;-90
2022/10/07 02:16:47;;;;;;;;;;;;;;;14.46;69.34;100879.44;4370320;32;37204;-92
2022/10/07 04:20:34;;;;;;;;;;;;;;;13.60;70.27;100849.75;4529143;27;20015;-94
2022/10/07 04:23:15;;;;;;;;;;;;;;;13.82;69.50;100844.34;4348937;33;33966;-91
2022/10/07 04:25:52;;;;;;;;;;;;;;;13.78;69.56;100830.47;4349098;33;34401;-94
2022/10/07 04:28:31;;;;;;;;;;;;;;;13.75;69.74;100837.44;4318830;33;33318;-93
2022/10/07 04:31:12;;;;;;;;;;;;;;;13.69;69.63;100840.13;4338311;32;34578;-91
2022/10/07 04:34:29;;;;;;;;;;;;;;;13.68;69.26;100841.88;4334769;33;32981;-90
2022/10/07 04:37:52;;;;;;;;;;;;;;;13.71;69.14;100833.16;4340714;33;34217;-91
2022/10/07 05:28:52;;;;;;;;;;;;;;;13.48;69.90;100867.19;4934524;27;19951;-92
2022/10/07 05:31:36;;;;;;;;;;;;;;;13.48;69.98;100865.44;4331208;33;32273;-92
2022/10/07 05:34:22;;;;;;;;;;;;;;;13.50;70.08;100862.84;4331896;33;33489;-91
2022/10/07 05:37:06;;;;;;;;;;;;;;;13.52;69.95;100866.31;4323131;33;34884;-91
2022/10/07 05:40:18;;;;;;;;;;;;;;;13.48;70.26;100862.84;4329722;33;34193;-91
2022/10/07 05:43:04;;;;;;;;;;;;;;;13.48;70.14;100868.06;4331423;33;33783;-94
2022/10/07 05:45:55;;;;;;;;;;;;;;;13.75;69.06;100869.62;4326376;33;32192;-93
2022/10/07 05:49:19;;;;;;;;;;;;;;;13.60;69.76;100865.41;4334796;33;34934;-95
2022/10/07 05:52:31;;;;;;;;;;;;;;;13.69;69.97;100872.28;4331553;33;35309;-91
2022/10/07 05:55:55;;;;;;;;;;;;;;;13.63;70.56;100867.97;4336191;33;33506;-94
2022/10/07 05:58:45;;;;;;;;;;;;;;;13.88;69.94;100871.25;4320725;33;34322;-92
2022/10/07 06:01:48;;;;;;;;;;;;;;;13.88;70.37;100867.78;4336206;33;34203;-92
2022/10/07 06:07:37;;;;;;;;;;;;;;;13.87;71.49;100879.12;4304864;33;34221;-93
2022/10/07 06:13:19;;;;;;;;;;;;;;;14.03;71.78;100883.31;4313580;33;33752;-92
2022/10/07 06:16:00;;;;;;;;;;;;;;;13.89;72.93;100882.56;4317684;33;35072;-94
2022/10/07 06:18:36;;;;;;;;;;;;;;;14.41;71.16;100884.72;4319232;33;33977;-92
2022/10/07 06:21:07;;;;;;;;;;;;;;;14.38;71.35;100886.50;4319601;33;33529;-93
2022/10/07 06:23:50;;;;;;;;;;;;;;;14.38;71.85;100887.38;4320454;33;35067;-92
2022/10/07 06:27:06;;;;;;;;;;;;;;;14.60;71.08;100888.03;4331311;33;34381;-92
2022/10/07 06:29:37;;;;;;;;;;;;;;;14.58;71.44;100879.34;4332888;32;34320;-92
2022/10/07 06:32:22;;;;;;;;;;;;;;;14.67;71.16;100883.63;4334331;33;33392;-93
2022/10/07 06:35:23;;;;;;;;;;;;;;;14.52;72.08;100881.97;4317251;33;35001;-94
2022/10/07 06:38:08;;;;;;;;;;;;;;;14.96;70.26;100885.03;4335995;33;35175;-93
2022/10/07 06:41:17;;;;;;;;;;;;;;;15.05;69.78;100879.69;4315252;33;32229;-92
2022/10/07 06:44:05;;;;;;;;;;;;;;;15.13;69.41;100870.00;4315614;33;33996;-94
2022/10/07 06:46:38;;;;;;;;;;;;;;;15.02;70.33;100875.34;4333884;33;33657;-94
2022/10/07 06:49:21;;;;;;;;;;;;;;;15.18;70.00;100869.94;4319674;33;34518;-94
2022/10/07 06:52:13;;;;;;;;;;;;;;;15.29;70.10;100868.91;4316596;33;34687;-92
2022/10/07 06:55:04;;;;;;;;;;;;;;;15.30;70.47;100870.63;4325151;33;33678;-92
2022/10/07 06:57:44;;;;;;;;;;;;;;;15.28;71.26;100868.94;4326802;33;34817;-94
2022/10/07 07:00:20;;;;;;;;;;;;;;;15.39;70.95;100868.78;4326430;33;35186;-93
2022/10/07 07:02:50;;;;;;;;;;;;;;;15.48;70.91;100869.50;4339101;33;34630;-93
2022/10/07 07:05:27;;;;;;;;;;;;;;;15.51;71.22;100872.09;4329494;33;33056;-93
2022/10/07 07:08:05;;;;;;;;;;;;;;;15.64;70.98;100867.53;4325371;33;35166;-92
2022/10/07 07:10:36;;;;;;;;;;;;;;;15.73;70.63;100872.66;4317867;33;35092;-90
2022/10/07 07:16:56;;;;;;;;;;;;;;;15.75;70.37;100870.00;4287044;33;34055;-93
2022/10/07 07:34:32;;;;;;;;;;;;;;;16.09;68.89;100878.19;4205206;34;34821;-92
2022/10/07 07:37:34;;;;;;;;;;;;;;;;;;;;;
2022/10/07 07:40:35;;;;;;;;;;;;;;;16.48;67.64;100869.62;4211870;33;32603;-93
2022/10/07 07:43:18;;;;;;;;;;;;;;;16.82;66.41;100880.38;4191995;34;35392;-91
2022/10/07 07:46:03;;;;;;;;;;;;;;;16.51;67.40;100865.22;4199374;34;34934;-91
2022/10/07 07:48:42;;;;;;;;;;;;;;;16.77;66.03;100862.09;4210352;34;34794;-91
2022/10/07 07:54:50;;;;;;;;;;;;;;;16.82;65.18;100868.13;4211344;33;34187;-92
2022/10/07 07:58:07;;;;;;;;;;;;;;;16.89;65.59;100865.38;4266412;33;34893;-92
2022/10/07 08:00:45;;;;;;;;;;;;;;;16.96;65.17;100865.25;4259542;33;33635;-92
2022/10/07 08:11:38;;;;;;;;;;;;;;;17.26;64.53;100850.59;4200812;34;34865;-94
2022/10/07 08:43:11;;;;;;;;;;;;;;;18.16;61.45;100833.59;4200194;33;33119;-92
2022/10/07 08:45:45;;;;;;;;;;;;;;;18.32;61.38;100829.66;4278906;33;33852;-92
2022/10/07 08:48:57;;;;;;;;;;;;;;;18.37;61.02;100824.28;4305586;33;33972;-92
2022/10/07 08:54:09;;;;;;;;;;;;;;;18.43;61.08;100825.88;4300584;33;35652;-92
2022/10/07 08:56:49;;;;;;;;;;;;;;;18.68;60.22;100826.06;4303581;33;35322;-93
2022/10/07 08:59:46;;;;;;;;;;;;;;;18.80;59.73;100827.47;4326948;33;35648;-89
2022/10/07 09:02:32;;;;;;;;;;;;;;;18.83;59.11;100819.53;4317366;33;35296;-89
2022/10/07 09:05:22;;;;;;;;;;;;;;;18.97;59.07;100818.22;4315539;33;36746;-90
2022/10/07 09:18:24;;;;;;;;;;;;;;;19.17;58.97;100801.81;4296609;33;34487;-92
2022/10/07 09:22:07;;;;;;;;;;;;;;;19.17;60.19;100798.31;4267596;33;34188;-92
2022/10/07 09:35:43;;;;;;;;;;;;;;;19.49;58.21;100785.91;4215550;33;32994;-91
2022/10/07 09:38:22;;;;;;;;;;;;;;;19.72;57.62;100786.06;4207986;33;33588;-90
2022/10/07 09:43:38;;;;;;;;;;;;;;;19.73;56.92;100781.66;4211985;33;35423;-92
2022/10/07 09:46:33;;;;;;;;;;;;;;;19.73;56.73;100779.87;4226125;33;32676;-92
2022/10/07 09:49:25;;;;;;;;;;;;;;;19.73;56.86;100771.97;4236643;33;33002;-91
2022/10/07 09:52:05;;;;;;;;;;;;;;;19.96;56.05;100768.56;4246130;33;34597;-90
2022/10/07 09:54:57;;;;;;;;;;;;;;;19.92;56.61;100761.66;4236485;33;36344;-90
2022/10/07 09:57:43;;;;;;;;;;;;;;;20.02;56.58;100762.22;4236888;33;32691;-88
2022/10/07 10:00:27;;;;;;;;;;;;;;;20.14;56.11;100756.50;4240807;33;32850;-92
2022/10/07 10:03:00;;;;;;;;;;;;;;;20.28;55.61;100760.44;4241508;33;33960;-90
2022/10/07 10:05:35;;;;;;;;;;;;;;;20.35;55.93;100749.59;4257504;33;33966;-92
2022/10/07 10:08:18;;;;;;;;;;;;;;;20.31;55.84;100749.75;4253214;33;33585;-90
2022/10/07 10:10:54;;;;;;;;;;;;;;;20.33;54.97;100742.66;4274921;33;32131;-91
2022/10/07 10:13:31;;;;;;;;;;;;;;;20.31;55.45;100742.72;4325137;33;33554;-92
2022/10/07 10:16:02;;;;;;;;;;;;;;;20.41;54.23;100741.44;4314753;33;35070;-93
2022/10/07 10:18:43;;;;;;;;;;;;;;;20.59;54.40;100741.72;4315495;33;37425;-90
2022/10/07 10:21:16;;;;;;;;;;;;;;;20.60;54.81;100739.03;4326948;33;34693;-94
2022/10/07 10:23:52;;;;;;;;;;;;;;;20.46;55.32;100741.28;4325168;33;33331;-88
2022/10/07 10:26:37;;;;;;;;;;;;;;;20.54;54.82;100731.31;4325001;33;34062;-89
2022/10/07 10:29:25;;;;;;;;;;;;;;;20.69;54.73;100729.06;4325130;33;35136;-91
2022/10/07 10:32:05;;;;;;;;;;;;;;;20.71;54.94;100727.19;4329712;33;33694;-91
2022/10/07 10:34:41;;;;;;;;;;;;;;;20.76;54.32;100726.13;4326601;33;34132;-90
2022/10/07 10:37:19;;;;;;;;;;;;;;;21.20;52.82;100714.72;4323620;33;34130;-91
2022/10/07 10:40:02;;;;;;;;;;;;;;;21.04;53.67;100717.09;4324123;33;36297;-91
2022/10/07 10:42:59;;;;;;;;;;;;;;;20.81;54.29;100724.16;4324236;33;34887;-92
2022/10/07 10:45:39;;;;;;;;;;;;;;;20.95;52.79;100713.06;4332822;33;33705;-94
2022/10/07 10:48:20;;;;;;;;;;;;;;;21.13;52.70;100708.81;4329141;33;34550;-92
2022/10/07 10:51:05;;;;;;;;;;;;;;;21.11;52.75;100700.09;4325808;33;34077;-93
2022/10/07 10:53:48;;;;;;;;;;;;;;;21.07;52.84;100690.63;4324554;33;32148;-91
2022/10/07 10:56:28;;;;;;;;;;;;;;;21.37;51.91;100685.84;4325746;33;33331;-91
2022/10/07 10:59:15;;;;;;;;;;;;;;;21.44;50.72;100675.91;4323076;33;34628;-91
2022/10/07 11:01:51;;;;;;;;;;;;;;;21.26;52.67;100680.13;4323461;33;34836;-91
2022/10/07 11:04:40;;;;;;;;;;;;;;;21.20;52.60;100675.13;4317445;33;32031;-93
2022/10/07 11:07:50;;;;;;;;;;;;;;;21.59;50.76;100667.31;4326714;33;37307;-92
2022/10/07 11:10:47;;;;;;;;;;;;;;;21.52;51.31;100660.59;4329199;33;33667;-93
2022/10/07 11:13:44;;;;;;;;;;;;;;;21.72;50.91;100652.69;4327095;33;36576;-92
2022/10/07 11:16:25;;;;;;;;;;;;;;;21.71;51.67;100656.22;4327974;33;33946;-91
2022/10/07 11:19:14;;;;;;;;;;;;;;;21.47;51.90;100646.72;4328470;33;34426;-92
2022/10/07 11:22:03;;;;;;;;;;;;;;;21.52;51.59;100642.97;4308996;33;33076;-94
2022/10/07 11:25:09;;;;;;;;;;;;;;;21.82;51.14;100634.63;4319050;33;36196;-91
2022/10/07 11:27:59;;;;;;;;;;;;;;;21.85;50.65;100633.63;4322941;33;32814;-92
2022/10/07 11:30:44;;;;;;;;;;;;;;;21.92;51.33;100627.16;4324181;33;33314;-92
2022/10/07 11:33:34;;;;;;;;;;;;;;;22.22;49.03;100624.06;4330599;33;33850;-92
2022/10/07 11:36:15;;;;;;;;;;;;;;;21.96;50.76;100618.12;4333752;33;34353;-91
2022/10/07 11:41:52;;;;;;;;;;;;;;;22.23;49.13;100609.87;4322319;33;33805;-94
2022/10/07 11:44:33;;;;;;;;;;;;;;;22.21;49.07;100601.22;4329174;33;34241;-94
2022/10/07 11:47:20;;;;;;;;;;;;;;;22.00;49.19;100600.38;4310161;33;34590;-92
2022/10/07 11:50:13;;;;;;;;;;;;;;;22.40;48.42;100594.13;4327058;33;31771;-92
2022/10/07 11:52:56;;;;;;;;;;;;;;;22.41;49.33;100592.31;4328201;33;34200;-92
2022/10/07 11:55:38;;;;;;;;;;;;;;;22.19;48.47;100581.88;4327550;33;34347;-95
2022/10/07 12:01:30;;;;;;;;;;;;;;;22.50;48.73;100576.88;4323122;33;33018;-92
2022/10/07 12:04:35;;;;;;;;;;;;;;;22.37;48.28;100573.97;4316835;33;34938;-91
2022/10/07 12:07:36;;;;;;;;;;;;;;;22.35;48.64;100573.19;4308158;33;36606;-92
2022/10/07 12:10:24;;;;;;;;;;;;;;;22.47;48.37;100569.09;4311883;33;37108;-92
2022/10/07 12:16:48;;;;;;;;;;;;;;;22.46;47.96;100559.44;4311711;33;34417;-93
2022/10/07 12:19:51;;;;;;;;;;;;;;;22.57;47.43;100549.19;4320838;33;33958;-91
2022/10/07 12:22:40;;;;;;;;;;;;;;;22.67;47.77;100544.31;4318736;33;34061;-95
2022/10/07 12:25:30;;;;;;;;;;;;;;;22.77;47.55;100542.91;4311867;33;32584;-94
2022/10/07 12:28:30;;;;;;;;;;;;;;;22.65;47.31;100537.38;4303672;33;32776;-90
2022/10/07 12:31:10;;;;;;;;;;;;;;;22.87;46.90;100538.00;4312546;33;35415;-91
2022/10/07 12:33:58;;;;;;;;;;;;;;;22.76;47.77;100535.91;4325631;33;32468;-91
2022/10/07 12:36:35;;;;;;;;;;;;;;;22.76;47.25;100525.34;4337261;33;31980;-93
2022/10/07 12:39:35;;;;;;;;;;;;;;;22.92;47.47;100530.69;4310696;33;33912;-91
2022/10/07 12:45:36;;;;;;;;;;;;;;;22.73;47.24;100520.16;4308474;33;36846;-92
2022/10/07 12:48:19;;;;;;;;;;;;;;;23.15;45.66;100515.47;4320059;33;33491;-93
2022/10/07 12:53:54;;;;;;;;;;;;;;;22.95;45.60;100514.66;4327578;33;34436;-94
2022/10/07 12:56:41;;;;;;;;;;;;;;;22.79;46.82;100511.94;4310379;33;34752;-94
2022/10/07 12:59:47;;;;;;;;;;;;;;;23.17;46.60;100510.91;4325417;32;32234;-93
2022/10/07 13:02:47;;;;;;;;;;;;;;;23.37;46.82;100513.38;4316470;33;35131;-92
2022/10/07 13:05:54;;;;;;;;;;;;;;;23.17;46.59;100500.31;4324215;33;37302;-93
2022/10/07 13:12:19;;;;;;;;;;;;;;;22.97;46.05;100491.59;4305409;33;33809;-91
2022/10/07 13:15:13;;;;;;;;;;;;;;;23.36;44.71;100487.81;4324052;33;33308;-92
2022/10/07 13:17:47;;;;;;;;;;;;;;;23.43;44.81;100483.06;4317569;33;34553;-91
2022/10/07 13:20:31;;;;;;;;;;;;;;;23.56;45.01;100480.63;4309887;33;34000;-91
2022/10/07 13:23:16;;;;;;;;;;;;;;;23.62;44.99;100470.53;4314396;33;32514;-90
2022/10/07 13:26:00;;;;;;;;;;;;;;;23.50;45.90;100473.84;4327379;33;32899;-90
2022/10/07 14:16:22;;;;;;;;;;;;;;;23.80;44.90;100414.81;4139187;34;33554;-91
2022/10/07 14:19:23;;;;;;;;;;;;;;;23.92;44.21;100413.28;4144648;34;33334;-92
2022/10/07 14:22:32;;;;;;;;;;;;;;;23.60;44.63;100406.16;4142303;34;37228;-92
2022/10/07 14:25:38;;;;;;;;;;;;;;;23.68;45.73;100407.53;4197802;34;34792;-92
2022/10/07 14:28:37;;;;;;;;;;;;;;;23.82;46.17;100410.28;4256717;33;35675;-92
2022/10/07 14:37:56;;;;;;;;;;;;;;;23.29;45.01;100399.06;4252515;33;34252;-90
2022/10/07 14:41:03;;;;;;;;;;;;;;;23.16;46.33;100411.28;4238851;33;35476;-91
2022/10/07 14:43:44;;;;;;;;;;;;;;;23.10;46.48;100395.72;4256534;33;35038;-92
2022/10/07 14:46:32;;;;;;;;;;;;;;;23.27;46.97;100392.16;4259142;33;34582;-91
2022/10/07 14:49:23;;;;;;;;;;;;;;;23.13;47.79;100385.84;4303936;33;34021;-90
2022/10/07 14:52:05;;;;;;;;;;;;;;;23.19;48.62;100390.78;4326913;33;32552;-90
2022/10/07 14:54:44;;;;;;;;;;;;;;;22.88;48.89;100399.50;4325520;33;34378;-93
2022/10/07 14:57:27;;;;;;;;;;;;;;;22.76;48.80;100392.19;4301010;33;37234;-91
2022/10/07 15:00:28;;;;;;;;;;;;;;;22.45;48.59;100385.87;4323346;33;33470;-95
2022/10/07 15:03:14;;;;;;;;;;;;;;;22.53;49.73;100388.97;4332446;33;33500;-90
2022/10/07 15:06:04;;;;;;;;;;;;;;;22.52;49.37;100379.34;4332845;33;34226;-91
2022/10/07 15:08:45;;;;;;;;;;;;;;;22.19;50.56;100383.66;4313720;33;35051;-89
2022/10/07 15:11:31;;;;;;;;;;;;;;;22.06;51.08;100384.28;4314922;33;33464;-90
2022/10/07 15:14:14;;;;;;;;;;;;;;;21.95;51.78;100381.31;4317982;33;33572;-92
2022/10/07 15:19:38;;;;;;;;;;;;;;;21.88;51.35;100374.62;4318080;33;33396;-90
2022/10/07 15:22:22;;;;;;;;;;;;;;;21.63;51.21;100374.97;4321113;33;33053;-88
2022/10/07 15:25:03;;;;;;;;;;;;;;;21.63;51.10;100370.53;4316179;33;32343;-90
2022/10/07 15:27:46;;;;;;;;;;;;;;;21.66;51.28;100373.00;4328181;33;34764;-93
2022/10/07 15:30:27;;;;;;;;;;;;;;;21.60;51.56;100372.44;4320222;33;34164;-91
2022/10/07 15:33:11;;;;;;;;;;;;;;;21.42;52.00;100371.56;4315561;33;33118;-88
2022/10/07 15:35:52;;;;;;;;;;;;;;;21.28;52.65;100359.81;4328877;33;32543;-93
2022/10/07 15:38:34;;;;;;;;;;;;;;;21.24;53.17;100363.53;4320009;33;33610;-93
2022/10/07 15:41:16;;;;;;;;;;;;;;;21.25;52.92;100365.25;4318114;33;32733;-91
2022/10/07 15:44:04;;;;;;;;;;;;;;;21.14;53.43;100370.16;4317368;33;36276;-90
2022/10/07 15:47:05;;;;;;;;;;;;;;;20.99;53.81;100363.78;4330195;33;33540;-88
2022/10/07 15:50:01;;;;;;;;;;;;;;;21.13;53.63;100370.25;4332571;33;34605;-91
2022/10/07 15:52:54;;;;;;;;;;;;;;;20.82;54.29;100374.25;4318241;33;33073;-92
2022/10/07 15:55:38;;;;;;;;;;;;;;;20.92;54.30;100372.06;4322005;33;32916;-88
2022/10/07 15:58:18;;;;;;;;;;;;;;;20.62;54.60;100367.25;4322734;33;32377;-89
2022/10/07 16:00:58;;;;;;;;;;;;;;;20.35;55.45;100364.84;4336345;33;33809;-89
2022/10/07 16:03:41;;;;;;;;;;;;;;;20.56;54.95;100362.22;4332819;33;35035;-90
2022/10/07 16:06:24;;;;;;;;;;;;;;;20.64;54.96;100365.41;4324085;33;32543;-89
2022/10/07 16:09:04;;;;;;;;;;;;;;;20.36;55.99;100363.91;4333241;33;33388;-89
2022/10/07 16:11:53;;;;;;;;;;;;;;;20.19;56.40;100369.06;4335590;33;33838;-88
2022/10/07 16:14:46;;;;;;;;;;;;;;;20.13;56.67;100370.19;4321500;33;33076;-89
2022/10/07 16:17:26;;;;;;;;;;;;;;;20.14;56.54;100366.59;4321939;33;33684;-87
2022/10/07 16:20:18;;;;;;;;;;;;;;;19.98;56.98;100371.69;4321835;33;33390;-90
2022/10/07 16:23:04;;;;;;;;;;;;;;;19.77;57.62;100362.87;4321233;33;34835;-89
2022/10/07 16:25:40;;;;;;;;;;;;;;;19.66;57.87;100365.03;4318508;33;36403;-88
2022/10/07 16:31:33;;;;;;;;;;;;;;;19.50;58.25;100366.53;4350490;33;34375;-87
2022/10/07 16:34:13;;;;;;;;;;;;;;;19.33;58.71;100369.84;4346224;33;34043;-89
2022/10/07 16:36:54;;;;;;;;;;;;;;;19.21;58.81;100368.56;4337874;33;33003;-90
2022/10/07 16:39:37;;;;;;;;;;;;;;;19.21;58.88;100371.19;4332529;33;33972;-88
2022/10/07 16:42:22;;;;;;;;;;;;;;;19.10;59.03;100368.94;4328798;33;32969;-89
2022/10/07 16:45:03;;;;;;;;;;;;;;;19.02;59.35;100368.38;4323636;33;34163;-89
2022/10/07 16:47:46;;;;;;;;;;;;;;;19.10;59.33;100365.47;4330909;33;34195;-88
2022/10/07 16:50:30;;;;;;;;;;;;;;;18.85;59.79;100368.16;4334801;33;34762;-88
2022/10/07 16:53:08;;;;;;;;;;;;;;;18.80;59.96;100368.31;4324011;33;32137;-88
2022/10/07 16:55:49;;;;;;;;;;;;;;;18.80;59.87;100370.94;4335284;33;34493;-89
2022/10/07 16:58:21;;;;;;;;;;;;;;;18.59;60.50;100369.91;4329941;33;34396;-88
2022/10/07 17:01:06;;;;;;;;;;;;;;;18.67;60.50;100369.63;4333077;33;32503;-88
2022/10/07 17:03:42;;;;;;;;;;;;;;;18.68;60.51;100368.72;4334012;33;33434;-89
2022/10/07 17:06:16;;;;;;;;;;;;;;;18.61;60.66;100362.84;4318450;33;32723;-89
2022/10/07 17:09:03;;;;;;;;;;;;;;;18.52;60.97;100361.38;4336504;33;34168;-88
2022/10/07 17:11:39;;;;;;;;;;;;;;;18.58;60.83;100365.56;4330227;33;34181;-88
2022/10/07 17:14:23;;;;;;;;;;;;;;;18.52;60.97;100357.91;4317251;33;31595;-87
2022/10/07 17:17:06;;;;;;;;;;;;;;;18.52;61.01;100360.53;4334164;33;33805;-87
2022/10/07 17:19:58;;;;;;;;;;;;;;;18.38;61.30;100365.41;4333059;33;35010;-88
2022/10/07 17:22:42;;;;;;;;;;;;;;;18.27;61.50;100361.38;4334053;33;34217;-87
2022/10/07 17:25:22;;;;;;;;;;;;;;;18.36;61.42;100359.34;4335950;33;34660;-89
2022/10/07 17:28:13;;;;;;;;;;;;;;;18.18;62.06;100364.31;4333801;33;34975;-88
2022/10/07 17:30:46;;;;;;;;;;;;;;;18.12;62.07;100360.13;4347949;33;33662;-87
2022/10/07 17:33:30;;;;;;;;;;;;;;;18.30;61.40;100360.41;4345874;33;34596;-87
2022/10/07 17:36:09;;;;;;;;;;;;;;;18.21;61.75;100364.19;4336687;33;32819;-87
2022/10/07 17:38:55;;;;;;;;;;;;;;;18.25;61.67;100371.06;4346781;33;32392;-87
2022/10/07 17:41:34;;;;;;;;;;;;;;;18.05;62.06;100368.25;4331075;33;33032;-89
2022/10/07 17:44:11;;;;;;;;;;;;;;;18.01;62.44;100361.41;4350283;33;35428;-89
2022/10/07 17:46:55;;;;;;;;;;;;;;;17.92;62.50;100358.16;4335229;33;31763;-89
2022/10/07 17:49:33;;;;;;;;;;;;;;;17.84;62.64;100362.81;4335729;33;33762;-87
2022/10/07 17:52:04;;;;;;;;;;;;;;;17.89;62.39;100360.88;4336386;33;34193;-87
2022/10/07 17:54:35;;;;;;;;;;;;;;;18.12;61.82;100364.50;4333030;33;34474;-87
2022/10/07 17:57:15;;;;;;;;;;;;;;;17.81;62.55;100362.91;4338443;33;33656;-87
2022/10/07 17:59:46;;;;;;;;;;;;;;;17.87;62.41;100360.06;4332078;33;34624;-87
2022/10/07 18:02:25;;;;;;;;;;;;;;;17.83;62.46;100363.72;4335839;33;34259;-87
2022/10/07 18:04:59;;;;;;;;;;;;;;;17.90;62.42;100360.00;4335435;33;34350;-88
2022/10/07 18:07:29;;;;;;;;;;;;;;;17.87;62.48;100359.22;4336507;33;33258;-87
2022/10/07 18:10:11;;;;;;;;;;;;;;;17.78;62.62;100349.84;4336158;33;33857;-89
2022/10/07 18:15:49;;;;;;;;;;;;;;;17.72;62.83;100343.94;4320319;33;35380;-88
2022/10/07 18:18:29;;;;;;;;;;;;;;;17.76;62.71;100345.53;4335485;33;33502;-88
2022/10/07 18:21:11;;;;;;;;;;;;;;;17.48;63.20;100341.19;4335950;33;34532;-87
2022/10/07 18:23:41;;;;;;;;;;;;;;;17.39;63.68;100339.69;4332915;33;35441;-88
2022/10/07 18:26:16;;;;;;;;;;;;;;;17.37;63.44;100338.03;4330897;33;35878;-89
2022/10/07 18:28:57;;;;;;;;;;;;;;;17.46;63.37;100335.13;4320507;33;31954;-89
2022/10/07 18:31:27;;;;;;;;;;;;;;;17.24;63.73;100337.56;4333723;33;33944;-87
2022/10/07 18:34:10;;;;;;;;;;;;;;;17.50;63.01;100334.12;4321576;33;35412;-88
2022/10/07 18:36:50;;;;;;;;;;;;;;;17.27;63.63;100337.44;4334910;33;34967;-87
2022/10/07 18:39:29;;;;;;;;;;;;;;;17.29;63.36;100333.03;4322984;33;34058;-87
2022/10/07 18:42:03;;;;;;;;;;;;;;;17.20;63.67;100342.03;4337524;33;34965;-88
2022/10/07 18:44:32;;;;;;;;;;;;;;;17.14;64.06;100343.97;4346556;33;33912;-87
2022/10/07 18:47:06;;;;;;;;;;;;;;;17.13;63.92;100323.91;4325993;33;34741;-89
2022/10/07 18:49:35;;;;;;;;;;;;;;;17.14;64.13;100330.88;4329405;33;32665;-87
2022/10/07 18:52:07;;;;;;;;;;;;;;;17.14;64.10;100330.88;4325423;33;34937;-89
2022/10/07 18:54:38;;;;;;;;;;;;;;;17.09;64.17;100330.16;4321386;33;32459;-88
2022/10/07 18:57:18;;;;;;;;;;;;;;;17.14;63.93;100326.47;4331662;33;34815;-87
2022/10/07 18:59:50;;;;;;;;;;;;;;;16.99;64.38;100324.31;4324001;33;31574;-89
2022/10/07 19:02:21;;;;;;;;;;;;;;;16.92;64.59;100326.25;4318526;33;33662;-88
2022/10/07 19:04:58;;;;;;;;;;;;;;;17.05;64.26;100324.97;4319327;33;35116;-87
2022/10/07 19:07:37;;;;;;;;;;;;;;;16.94;64.49;100327.09;4314371;33;32796;-89
2022/10/07 19:10:15;;;;;;;;;;;;;;;16.71;65.32;100324.22;4309628;33;33667;-88
2022/10/07 19:15:44;;;;;;;;;;;;;;;16.84;65.01;100330.84;4329498;33;33775;-87
2022/10/07 19:18:17;;;;;;;;;;;;;;;16.64;65.30;100313.91;4332916;33;33422;-90
2022/10/07 19:20:57;;;;;;;;;;;;;;;16.84;65.01;100318.63;4334932;33;36140;-89
2022/10/07 19:23:34;;;;;;;;;;;;;;;16.64;65.61;100321.75;4329071;33;34186;-88
2022/10/07 19:26:08;;;;;;;;;;;;;;;16.59;65.76;100325.41;4327029;33;32995;-89
2022/10/07 19:28:45;;;;;;;;;;;;;;;16.61;65.42;100321.84;4330725;33;33846;-89
2022/10/07 19:31:22;;;;;;;;;;;;;;;16.64;65.39;100318.28;4335029;33;32292;-87
2022/10/07 19:34:01;;;;;;;;;;;;;;;16.51;65.79;100325.63;4317605;33;34549;-87
2022/10/07 19:36:33;;;;;;;;;;;;;;;16.57;65.47;100330.69;4328583;33;33546;-88
2022/10/07 19:39:04;;;;;;;;;;;;;;;16.52;65.47;100326.50;4331408;33;33910;-89
2022/10/07 19:41:43;;;;;;;;;;;;;;;16.53;65.67;100328.22;4331098;33;34596;-87
2022/10/07 19:44:17;;;;;;;;;;;;;;;16.52;65.46;100336.97;4325071;33;34080;-90
2022/10/07 19:46:46;;;;;;;;;;;;;;;16.62;65.32;100334.06;4315186;33;34739;-90
2022/10/07 19:49:17;;;;;;;;;;;;;;;16.63;65.04;100324.44;4315931;33;33676;-89
2022/10/07 19:51:49;;;;;;;;;;;;;;;16.50;65.44;100325.66;4323324;33;31303;-88
2022/10/07 19:54:27;;;;;;;;;;;;;;;16.50;65.43;100326.53;4333074;33;34478;-90
2022/10/07 19:57:03;;;;;;;;;;;;;;;16.40;65.55;100328.53;4326969;33;33473;-90
2022/10/07 19:59:33;;;;;;;;;;;;;;;16.55;65.18;100321.16;4319436;33;33229;-89
2022/10/07 20:02:07;;;;;;;;;;;;;;;16.37;65.74;100327.78;4314766;33;32374;-88
2022/10/07 20:04:36;;;;;;;;;;;;;;;16.35;65.67;100324.31;4325912;33;33327;-89
2022/10/07 20:07:21;;;;;;;;;;;;;;;16.35;65.60;100322.56;4315381;33;33893;-87
2022/10/07 20:09:56;;;;;;;;;;;;;;;16.39;65.38;100329.44;4311519;33;34458;-89
2022/10/07 20:12:28;;;;;;;;;;;;;;;16.34;65.68;100333.09;4313388;33;34130;-88
2022/10/07 20:14:59;;;;;;;;;;;;;;;16.28;65.69;100322.78;4316146;33;32756;-89
2022/10/07 20:17:33;;;;;;;;;;;;;;;16.32;65.47;100327.88;4315809;33;35872;-88
2022/10/07 20:20:03;;;;;;;;;;;;;;;16.30;65.71;100324.44;4319162;33;34141;-87
2022/10/07 20:22:39;;;;;;;;;;;;;;;16.24;65.62;100332.47;4315373;33;34333;-87
2022/10/07 20:25:18;;;;;;;;;;;;;;;16.35;65.50;100319.94;4318670;33;34445;-89
2022/10/07 20:27:58;;;;;;;;;;;;;;;16.17;65.83;100325.69;4320120;33;36315;-88
2022/10/07 20:30:28;;;;;;;;;;;;;;;16.20;65.78;100325.59;4310370;33;34332;-88
2022/10/07 20:33:05;;;;;;;;;;;;;;;16.14;65.91;100329.25;4308473;33;34006;-90
2022/10/07 20:35:39;;;;;;;;;;;;;;;16.04;65.93;100325.13;4314985;33;34469;-90
2022/10/07 20:38:10;;;;;;;;;;;;;;;16.05;65.84;100316.38;4327219;33;34842;-87
2022/10/07 20:43:33;;;;;;;;;;;;;;;16.04;66.10;100327.75;4308313;33;33038;-88
2022/10/07 20:46:04;;;;;;;;;;;;;;;16.01;66.17;100317.34;4315659;33;33200;-89
2022/10/07 20:48:34;;;;;;;;;;;;;;;15.90;66.51;100322.00;4319346;33;35046;-88
2022/10/07 20:51:07;;;;;;;;;;;;;;;15.97;66.08;100323.56;4317814;33;35317;-88